createdAt,value
2018-07-08T00:01:21.753Z,2.47
2018-07-08T00:05:26.057Z,3.30
2018-07-08T00:09:30.293Z,3.30
2018-07-08T00:13:34.744Z,3.40
2018-07-08T00:17:39.033Z,3.30
2018-07-08T00:21:43.375Z,3.10
2018-07-08T00:25:47.753Z,3.60
2018-07-08T00:29:51.991Z,3.63
2018-07-08T00:33:56.260Z,2.57
2018-07-08T00:38:00.640Z,2.80
2018-07-08T00:42:04.881Z,3.97
2018-07-08T00:46:09.234Z,3.53
2018-07-08T00:50:13.536Z,3.57
2018-07-08T00:54:17.909Z,3.17
2018-07-08T00:58:22.270Z,3.53
2018-07-08T01:02:26.500Z,3.10
2018-07-08T01:06:30.908Z,3.80
2018-07-08T01:10:35.284Z,3.30
2018-07-08T01:14:39.497Z,3.60
2018-07-08T01:18:44.129Z,3.43
2018-07-08T01:22:48.372Z,3.57
2018-07-08T01:26:52.798Z,3.43
2018-07-08T01:30:57.096Z,3.13
2018-07-08T01:35:01.557Z,4.53
2018-07-08T01:39:07.501Z,3.23
2018-07-08T01:43:11.792Z,3.83
2018-07-08T01:47:16.119Z,3.80
2018-07-08T01:51:20.360Z,4.30
2018-07-08T01:55:24.805Z,3.50
2018-07-08T01:59:28.989Z,3.90
2018-07-08T02:03:33.313Z,4.30
2018-07-08T02:07:37.797Z,3.97
2018-07-08T02:11:42.080Z,3.90
2018-07-08T02:15:46.427Z,3.80
2018-07-08T02:19:50.848Z,3.97
2018-07-08T02:23:55.253Z,3.23
2018-07-08T02:27:59.745Z,4.63
2018-07-08T02:32:04.096Z,3.90
2018-07-08T02:36:08.319Z,4.90
2018-07-08T02:40:13.139Z,4.20
2018-07-08T02:44:17.427Z,4.23
2018-07-08T02:48:21.773Z,4.10
2018-07-08T02:52:26.184Z,3.97
2018-07-08T02:56:30.539Z,4.53
2018-07-08T03:00:34.772Z,4.00
2018-07-08T03:04:39.101Z,4.20
2018-07-08T03:08:43.460Z,3.50
2018-07-08T03:12:47.798Z,3.67
2018-07-08T03:16:52.164Z,5.00
2018-07-08T03:20:56.400Z,4.13
2018-07-08T03:25:00.752Z,4.23
2018-07-08T03:29:04.945Z,4.10
2018-07-08T03:33:09.292Z,3.87
2018-07-08T03:37:13.635Z,3.63
2018-07-08T03:41:18.051Z,3.77
2018-07-08T03:45:22.285Z,3.90
2018-07-08T03:49:26.693Z,4.00
2018-07-08T03:53:30.906Z,3.73
2018-07-08T03:57:35.137Z,3.80
2018-07-08T04:01:39.472Z,4.40
2018-07-08T04:05:43.785Z,3.50
2018-07-08T04:09:48.265Z,3.00
2018-07-08T04:13:52.630Z,3.47
2018-07-08T04:18:02.192Z,4.70
2018-07-08T04:22:06.497Z,3.87
2018-07-08T04:26:10.813Z,3.47
2018-07-08T04:30:15.057Z,4.30
2018-07-08T04:34:19.581Z,3.80
2018-07-08T04:38:23.978Z,3.80
2018-07-08T04:42:28.193Z,3.93
2018-07-08T04:46:32.928Z,3.77
2018-07-08T04:50:37.349Z,3.50
2018-07-08T04:54:41.741Z,3.70
2018-07-08T04:58:45.958Z,4.07
2018-07-08T05:02:50.233Z,3.73
2018-07-08T05:06:54.557Z,3.83
2018-07-08T05:10:58.896Z,3.70
2018-07-08T05:15:03.357Z,3.50
2018-07-08T05:19:07.638Z,3.50
2018-07-08T05:23:11.930Z,3.60
2018-07-08T05:27:16.217Z,4.50
2018-07-08T05:31:20.544Z,5.47
2018-07-08T05:35:24.997Z,4.00
2018-07-08T05:39:29.605Z,3.50
2018-07-08T05:43:33.855Z,3.97
2018-07-08T05:47:38.117Z,3.77
2018-07-08T05:51:42.702Z,4.40
2018-07-08T05:55:46.894Z,3.63
2018-07-08T05:59:51.300Z,3.77
2018-07-08T06:03:55.582Z,3.00
2018-07-08T06:07:59.883Z,2.60
2018-07-08T06:12:04.261Z,2.70
2018-07-08T06:16:08.721Z,2.40
2018-07-08T06:20:13.218Z,3.10
2018-07-08T06:24:17.433Z,3.00
2018-07-08T06:28:21.658Z,3.10
2018-07-08T06:32:26.073Z,2.50
2018-07-08T06:36:30.379Z,3.80
2018-07-08T06:40:34.740Z,3.60
2018-07-08T06:44:38.987Z,2.40
2018-07-08T06:48:43.433Z,2.43
2018-07-08T06:52:48.016Z,2.33
2018-07-08T06:56:52.231Z,2.50
2018-07-08T07:00:56.488Z,2.87
2018-07-08T07:05:01.107Z,2.53
2018-07-08T07:09:07.659Z,3.20
2018-07-08T07:13:11.897Z,2.47
2018-07-08T07:17:16.182Z,2.70
2018-07-08T07:21:21.572Z,3.10
2018-07-08T07:25:26.867Z,2.80
2018-07-08T07:29:31.537Z,2.60
2018-07-08T07:33:36.277Z,2.50
2018-07-08T07:37:40.538Z,2.83
2018-07-08T07:41:44.937Z,2.50
2018-07-08T07:45:49.483Z,2.80
2018-07-08T07:49:53.758Z,3.13
2018-07-08T07:53:58.125Z,3.30
2018-07-08T07:58:02.830Z,2.70
2018-07-08T08:02:07.548Z,2.87
2018-07-08T08:06:12.456Z,2.97
2018-07-08T08:10:17.119Z,2.50
2018-07-08T08:14:21.602Z,1.50
2018-07-08T08:18:26.000Z,2.00
2018-07-08T08:22:30.411Z,2.10
2018-07-08T08:26:34.645Z,2.20
2018-07-08T08:30:38.937Z,1.83
2018-07-08T08:34:53.456Z,2.33
2018-07-08T08:38:57.875Z,2.17
2018-07-08T08:43:02.449Z,1.27
2018-07-08T08:47:06.676Z,1.90
2018-07-08T08:51:11.177Z,2.30
2018-07-08T08:55:15.865Z,2.20
2018-07-08T08:59:20.407Z,2.50
2018-07-08T09:03:24.783Z,2.37
2018-07-08T09:07:29.146Z,2.33
2018-07-08T09:11:33.741Z,2.40
2018-07-08T09:15:38.554Z,2.70
2018-07-08T09:19:44.727Z,2.13
2018-07-08T09:23:51.740Z,2.80
2018-07-08T09:27:56.325Z,2.40
2018-07-08T09:32:00.591Z,2.70
2018-07-08T09:36:04.879Z,3.00
2018-07-08T09:40:09.185Z,2.10
2018-07-08T09:44:14.359Z,2.03
2018-07-08T09:48:18.660Z,1.87
2018-07-08T09:52:23.156Z,2.13
2018-07-08T09:56:27.685Z,2.20
2018-07-08T10:00:31.973Z,1.73
2018-07-08T10:04:36.384Z,2.07
2018-07-08T10:08:40.724Z,1.97
2018-07-08T10:12:45.164Z,1.97
2018-07-08T10:16:49.390Z,1.77
2018-07-08T10:20:53.649Z,2.10
2018-07-08T10:24:57.887Z,2.10
2018-07-08T10:29:02.498Z,2.10
2018-07-08T10:33:07.225Z,2.43
2018-07-08T10:37:11.624Z,2.00
2018-07-08T10:41:15.890Z,2.20
2018-07-08T10:45:20.113Z,2.30
2018-07-08T10:49:24.537Z,2.70
2018-07-08T10:53:28.883Z,2.10
2018-07-08T10:57:33.537Z,1.97
2018-07-08T11:01:38.149Z,1.83
2018-07-08T11:05:42.395Z,1.97
2018-07-08T11:09:46.713Z,2.50
2018-07-08T11:13:51.283Z,2.20
2018-07-08T11:17:55.629Z,1.93
2018-07-08T11:22:00.085Z,3.70
2018-07-08T11:26:04.316Z,1.83
2018-07-08T11:30:08.804Z,2.33
2018-07-08T11:34:13.262Z,2.03
2018-07-08T11:38:17.780Z,2.57
2018-07-08T11:42:22.023Z,2.27
2018-07-08T11:46:26.363Z,2.30
2018-07-08T11:50:30.597Z,2.37
2018-07-08T11:54:34.929Z,2.20
2018-07-08T11:58:39.149Z,1.87
2018-07-08T12:02:45.656Z,2.27
2018-07-08T12:06:50.422Z,2.30
2018-07-08T12:10:55.692Z,2.93
2018-07-08T12:14:59.964Z,2.20
2018-07-08T12:19:05.176Z,2.10
2018-07-08T12:23:09.505Z,2.20
2018-07-08T12:27:13.869Z,2.23
2018-07-08T12:31:18.076Z,2.33
2018-07-08T12:35:22.516Z,1.90
2018-07-08T12:39:26.764Z,2.67
2018-07-08T12:43:31.071Z,1.80
2018-07-08T12:47:35.448Z,2.23
2018-07-08T12:51:39.697Z,2.17
2018-07-08T12:55:44.063Z,1.87
2018-07-08T12:59:48.436Z,1.80
2018-07-08T13:03:52.895Z,1.60
2018-07-08T13:07:57.246Z,1.77
2018-07-08T13:12:01.537Z,1.80
2018-07-08T13:16:05.958Z,2.37
2018-07-08T13:20:10.262Z,1.70
2018-07-08T13:24:14.481Z,1.70
2018-07-08T13:28:18.851Z,1.50
2018-07-08T13:32:23.202Z,2.13
2018-07-08T13:36:27.479Z,1.73
2018-07-08T13:40:32.001Z,2.03
2018-07-08T13:44:36.385Z,1.90
2018-07-08T13:48:40.795Z,2.27
2018-07-08T13:52:45.080Z,2.20
2018-07-08T13:56:49.646Z,2.10
2018-07-08T14:00:54.115Z,1.70
2018-07-08T14:04:58.409Z,2.33
2018-07-08T14:09:02.758Z,2.10
2018-07-08T14:13:07.309Z,2.23
2018-07-08T14:17:11.569Z,2.73
2018-07-08T14:21:15.850Z,2.13
2018-07-08T14:25:20.274Z,1.87
2018-07-08T14:29:24.555Z,1.70
2018-07-08T14:33:29.003Z,1.73
2018-07-08T14:37:33.308Z,2.30
2018-07-08T14:41:37.810Z,1.80
2018-07-08T14:45:42.142Z,1.87
2018-07-08T14:49:46.444Z,2.07
2018-07-08T14:53:50.737Z,2.10
2018-07-08T14:57:55.043Z,2.17
2018-07-08T15:01:59.313Z,1.73
2018-07-08T15:06:03.583Z,1.97
2018-07-08T15:10:07.961Z,1.73
2018-07-08T15:14:12.287Z,1.60
2018-07-08T15:18:16.629Z,1.90
2018-07-08T15:22:20.945Z,1.63
2018-07-08T15:26:25.153Z,2.27
2018-07-08T15:30:29.461Z,1.80
2018-07-08T15:34:33.721Z,1.83
2018-07-08T15:38:38.006Z,2.50
2018-07-08T15:42:43.505Z,2.23
2018-07-08T15:46:47.901Z,2.00
2018-07-08T15:50:52.126Z,1.60
2018-07-08T15:54:56.378Z,2.03
2018-07-08T15:59:00.623Z,2.27
2018-07-08T16:03:04.899Z,2.13
2018-07-08T16:07:09.210Z,2.10
2018-07-08T16:11:13.487Z,2.23
2018-07-08T16:15:17.780Z,1.93
2018-07-08T16:19:22.028Z,2.37
2018-07-08T16:23:26.309Z,1.53
2018-07-08T16:27:30.793Z,2.20
2018-07-08T16:31:35.028Z,2.07
2018-07-08T16:35:45.312Z,1.70
2018-07-08T16:39:49.682Z,2.00
2018-07-08T16:43:54.062Z,2.27
2018-07-08T16:47:58.517Z,1.80
2018-07-08T16:52:02.736Z,2.00
2018-07-08T16:56:07.141Z,2.10
2018-07-08T17:00:11.376Z,1.80
2018-07-08T17:04:15.812Z,2.70
2018-07-08T17:08:20.113Z,2.00
2018-07-08T17:12:24.363Z,1.70
2018-07-08T17:16:28.624Z,2.00
2018-07-08T17:20:32.981Z,1.90
2018-07-08T17:24:37.281Z,2.37
2018-07-08T17:28:42.049Z,2.00
2018-07-08T17:32:46.600Z,1.87
2018-07-08T17:36:50.915Z,2.10
2018-07-08T17:40:55.411Z,2.97
2018-07-08T17:44:59.818Z,1.93
2018-07-08T17:49:04.568Z,2.07
2018-07-08T17:53:08.850Z,2.07
2018-07-08T17:57:13.111Z,1.73
2018-07-08T18:01:18.344Z,1.80
2018-07-08T18:05:22.670Z,2.70
2018-07-08T18:09:26.949Z,2.37
2018-07-08T18:13:31.373Z,2.10
2018-07-08T18:17:35.809Z,2.30
2018-07-08T18:21:40.156Z,1.80
2018-07-08T18:25:44.445Z,1.47
2018-07-08T18:29:48.710Z,2.13
2018-07-08T18:33:53.044Z,2.03
2018-07-08T18:37:57.316Z,2.50
2018-07-08T18:42:01.677Z,2.20
2018-07-08T18:46:06.048Z,2.20
2018-07-08T18:50:10.664Z,2.20
2018-07-08T18:54:14.866Z,2.13
2018-07-08T18:58:19.092Z,2.20
2018-07-08T19:02:23.523Z,2.07
2018-07-08T19:06:27.768Z,1.83
2018-07-08T19:10:32.055Z,2.03
2018-07-08T19:14:36.535Z,2.20
2018-07-08T19:18:41.708Z,2.10
2018-07-08T19:22:47.108Z,2.20
2018-07-08T19:26:51.476Z,2.17
2018-07-08T19:30:55.773Z,2.27
2018-07-08T19:35:00.533Z,2.23
2018-07-08T19:39:05.712Z,2.17
2018-07-08T19:43:09.957Z,2.50
2018-07-08T19:47:14.301Z,2.60
2018-07-08T19:51:18.648Z,2.20
2018-07-08T19:55:22.991Z,2.17
2018-07-08T19:59:27.202Z,1.97
2018-07-08T20:03:31.656Z,2.03
2018-07-08T20:07:35.982Z,2.70
2018-07-08T20:11:40.290Z,2.33
2018-07-08T20:15:44.665Z,2.13
2018-07-08T20:19:48.939Z,2.70
2018-07-08T20:23:53.444Z,2.67
2018-07-08T20:27:58.089Z,2.57
2018-07-08T20:32:02.435Z,2.73
2018-07-08T20:36:06.978Z,2.10
2018-07-08T20:40:11.298Z,2.70
2018-07-08T20:44:16.732Z,2.37
2018-07-08T20:48:21.064Z,3.05
2018-07-08T20:52:25.361Z,2.63
2018-07-08T20:56:29.668Z,2.90
2018-07-08T21:00:34.705Z,2.40
2018-07-08T21:04:39.248Z,2.70
2018-07-08T21:08:43.609Z,2.57
2018-07-08T21:12:47.893Z,2.60
2018-07-08T21:16:52.265Z,2.67
2018-07-08T21:20:56.634Z,2.50
2018-07-08T21:25:01.550Z,2.23
2018-07-08T21:29:08.753Z,3.47
2018-07-08T21:33:15.666Z,2.83
2018-07-08T21:37:20.697Z,2.90
2018-07-08T21:41:25.209Z,2.80
2018-07-08T21:45:29.560Z,2.80
2018-07-08T21:49:34.068Z,4.00
2018-07-08T21:53:38.349Z,2.60
2018-07-08T21:57:42.711Z,3.30
2018-07-08T22:02:04.673Z,2.60
2018-07-08T22:06:08.919Z,3.10
2018-07-08T22:10:13.333Z,2.40
2018-07-08T22:14:17.614Z,2.70
2018-07-08T22:18:21.924Z,2.80
2018-07-08T22:22:26.470Z,3.10
2018-07-08T22:26:30.799Z,2.97
2018-07-08T22:30:35.205Z,3.60
2018-07-08T22:34:39.841Z,2.93
2018-07-08T22:38:44.097Z,2.67
2018-07-08T22:42:48.444Z,3.17
2018-07-08T22:46:52.702Z,2.90
2018-07-08T22:50:56.988Z,2.63
2018-07-08T22:55:01.359Z,2.80
2018-07-08T22:59:05.796Z,2.77
2018-07-08T23:03:54.236Z,2.57
2018-07-08T23:07:58.500Z,3.03
2018-07-08T23:12:02.877Z,3.20
2018-07-08T23:16:07.247Z,2.60
2018-07-08T23:20:11.695Z,3.27
2018-07-08T23:24:16.381Z,2.90
2018-07-08T23:28:20.812Z,2.93
2018-07-08T23:32:25.329Z,3.70
2018-07-08T23:36:29.595Z,3.10
2018-07-08T23:40:33.933Z,3.10
2018-07-08T23:44:38.282Z,3.50
2018-07-08T23:48:42.503Z,3.50
2018-07-08T23:52:47.802Z,4.10
2018-07-08T23:56:52.218Z,3.30
